createdAt,value
2016-05-07T00:00:00.653Z,16.71
2016-05-07T00:01:00.640Z,16.72
2016-05-07T00:02:00.626Z,16.74
2016-05-07T00:03:00.598Z,16.74
2016-05-07T00:04:00.585Z,16.68
2016-05-07T00:05:00.572Z,16.6
2016-05-07T00:06:00.387Z,16.58
2016-05-07T00:07:00.515Z,16.58
2016-05-07T00:08:00.503Z,16.58
2016-05-07T00:09:00.489Z,16.56
2016-05-07T00:10:00.461Z,16.56
2016-05-07T00:11:00.447Z,16.66
2016-05-07T00:12:00.420Z,16.56
2016-05-07T00:13:00.422Z,16.57
2016-05-07T00:14:00.393Z,16.56
2016-05-07T00:15:00.365Z,16.49
2016-05-07T00:16:00.352Z,16.58
2016-05-07T00:17:00.323Z,16.47
2016-05-07T00:18:00.310Z,16.51
2016-05-07T00:19:00.297Z,16.46
2016-05-07T00:20:00.269Z,16.42
2016-05-07T00:21:00.256Z,16.51
2016-05-07T00:22:00.227Z,16.5
2016-05-07T00:23:00.058Z,16.42
2016-05-07T00:24:00.201Z,16.41
2016-05-07T00:25:00.173Z,16.46
2016-05-07T00:26:00.160Z,16.47
2016-05-07T00:27:00.132Z,16.41
2016-05-07T00:28:00.118Z,16.42
2016-05-07T00:29:00.090Z,16.39
2016-05-07T00:30:00.076Z,16.36
2016-05-07T00:31:00.065Z,16.41
2016-05-07T00:32:00.035Z,16.38
2016-05-07T00:33:00.023Z,16.39
2016-05-07T00:33:59.994Z,16.41
2016-05-07T00:34:59.981Z,16.35
2016-05-07T00:35:59.953Z,16.42
2016-05-07T00:36:59.939Z,16.42
2016-05-07T00:37:59.927Z,16.43
2016-05-07T00:38:59.914Z,16.35
2016-05-07T00:39:59.886Z,16.43
2016-05-07T00:40:59.872Z,16.35
2016-05-07T00:41:59.844Z,16.35
2016-05-07T00:42:59.830Z,16.39
2016-05-07T00:43:59.802Z,16.28
2016-05-07T00:44:59.789Z,16.23
2016-05-07T00:45:59.620Z,16.29
2016-05-07T00:46:59.747Z,16.32
2016-05-07T00:47:59.719Z,16.29
2016-05-07T00:48:59.706Z,16.35
2016-05-07T00:49:59.693Z,16.31
2016-05-07T00:50:59.665Z,16.24
2016-05-07T00:51:59.652Z,16.26
2016-05-07T00:52:59.638Z,16.24
2016-05-07T00:53:59.454Z,16.08
2016-05-07T00:54:59.582Z,16.1
2016-05-07T00:55:59.585Z,16.05
2016-05-07T00:56:59.572Z,16.05
2016-05-07T00:57:59.542Z,16.04
2016-05-07T00:58:59.515Z,16.09
2016-05-07T00:59:59.485Z,16.08
2016-05-07T01:00:59.473Z,16.08
2016-05-07T01:01:59.459Z,16.02
2016-05-07T01:02:59.431Z,16.02
2016-05-07T01:03:59.418Z,16.01
2016-05-07T01:04:59.406Z,15.91
2016-05-07T01:05:59.377Z,15.95
2016-05-07T01:06:59.364Z,15.88
2016-05-07T01:07:59.179Z,15.88
2016-05-07T01:08:59.322Z,15.83
2016-05-07T01:09:59.294Z,15.73
2016-05-07T01:10:59.297Z,15.79
2016-05-07T01:11:59.268Z,15.77
2016-05-07T01:12:59.239Z,15.84
2016-05-07T01:13:59.211Z,15.82
2016-05-07T01:14:59.042Z,15.73
2016-05-07T01:15:59.185Z,15.73
2016-05-07T01:16:59.156Z,15.79
2016-05-07T01:17:59.144Z,15.62
2016-05-07T01:18:59.115Z,15.77
2016-05-07T01:19:59.102Z,15.64
2016-05-07T01:20:59.088Z,15.61
2016-05-07T01:21:59.061Z,15.64
2016-05-07T01:22:59.047Z,15.68
2016-05-07T01:23:59.019Z,15.58
2016-05-07T01:24:59.006Z,15.55
2016-05-07T01:25:58.978Z,15.58
2016-05-07T01:26:59.229Z,15.61
2016-05-07T01:27:58.936Z,15.62
2016-05-07T01:28:58.939Z,15.59
2016-05-07T01:29:58.910Z,15.57
2016-05-07T01:30:58.897Z,15.54
2016-05-07T01:31:58.869Z,15.58
2016-05-07T01:32:58.840Z,15.62
2016-05-07T01:33:58.827Z,15.59
2016-05-07T01:34:58.799Z,15.58
2016-05-07T01:35:58.786Z,15.61
2016-05-07T01:36:58.757Z,15.57
2016-05-07T01:37:58.744Z,15.62
2016-05-07T01:38:58.715Z,15.61
2016-05-07T01:39:58.703Z,15.64
2016-05-07T01:40:58.790Z,15.57
2016-05-07T01:41:59.670Z,15.58
2016-05-07T01:42:58.645Z,15.51
2016-05-07T01:43:58.625Z,15.57
2016-05-07T01:44:58.601Z,15.61
2016-05-07T01:45:58.587Z,15.54
2016-05-07T01:46:58.559Z,15.52
2016-05-07T01:47:58.546Z,15.49
2016-05-07T01:48:58.517Z,15.47
2016-05-07T01:49:58.503Z,15.46
2016-05-07T01:50:58.476Z,15.52
2016-05-07T01:51:58.462Z,15.44
2016-05-07T01:52:58.433Z,15.47
2016-05-07T01:53:58.265Z,15.44
2016-05-07T01:54:58.423Z,15.47
2016-05-07T01:55:58.223Z,15.44
2016-05-07T01:56:58.367Z,15.47
2016-05-07T01:57:58.353Z,15.47
2016-05-07T01:58:58.325Z,15.42
2016-05-07T01:59:58.312Z,15.47
2016-05-07T02:00:58.283Z,15.43
2016-05-07T02:01:58.255Z,15.51
2016-05-07T02:02:58.258Z,15.47
2016-05-07T02:03:58.229Z,15.51
2016-05-07T02:04:58.200Z,15.49
2016-05-07T02:05:58.172Z,15.44
2016-05-07T02:06:58.003Z,15.43
2016-05-07T02:07:58.130Z,15.47
2016-05-07T02:08:58.118Z,15.44
2016-05-07T02:09:58.104Z,15.47
2016-05-07T02:10:57.920Z,15.44
2016-05-07T02:11:57.907Z,15.47
2016-05-07T02:12:58.035Z,15.44
2016-05-07T02:13:57.865Z,15.47
2016-05-07T02:14:57.993Z,15.47
2016-05-07T02:15:57.979Z,15.47
2016-05-07T02:16:57.952Z,15.44
2016-05-07T02:17:57.939Z,15.54
2016-05-07T02:18:57.926Z,15.44
2016-05-07T02:19:57.897Z,15.46
2016-05-07T02:20:57.884Z,15.47
2016-05-07T02:21:57.855Z,15.43
2016-05-07T02:22:57.843Z,15.46
2016-05-07T02:23:57.814Z,15.46
2016-05-07T02:24:57.804Z,15.43
2016-05-07T02:25:57.776Z,15.46
2016-05-07T02:26:57.887Z,15.42
2016-05-07T02:27:57.734Z,15.43
2016-05-07T02:28:57.721Z,15.4
2016-05-07T02:29:57.693Z,15.39
2016-05-07T02:30:57.664Z,15.33
2016-05-07T02:31:57.666Z,15.44
2016-05-07T02:32:57.638Z,15.43
2016-05-07T02:33:57.626Z,15.44
2016-05-07T02:34:57.597Z,15.42
2016-05-07T02:35:57.584Z,15.42
2016-05-07T02:36:57.555Z,15.39
2016-05-07T02:37:57.541Z,15.43
2016-05-07T02:38:57.514Z,15.42
2016-05-07T02:39:57.501Z,15.39
2016-05-07T02:40:57.472Z,15.44
2016-05-07T02:41:57.460Z,15.43
2016-05-07T02:42:57.430Z,15.49
2016-05-07T02:43:57.418Z,15.43
2016-05-07T02:44:57.233Z,15.42
2016-05-07T02:45:57.377Z,15.43
2016-05-07T02:46:57.348Z,15.35
2016-05-07T02:47:57.335Z,15.42
2016-05-07T02:48:57.165Z,15.43
2016-05-07T02:49:57.293Z,15.44
2016-05-07T02:50:57.280Z,15.36
2016-05-07T02:51:57.252Z,15.39
2016-05-07T02:52:57.082Z,15.42
2016-05-07T02:53:57.210Z,15.36
2016-05-07T02:54:57.198Z,15.44
2016-05-07T02:55:57.012Z,15.46
2016-05-07T02:56:57.156Z,15.43
2016-05-07T02:57:57.128Z,15.47
2016-05-07T02:58:57.114Z,15.51
2016-05-07T02:59:56.945Z,15.51
2016-05-07T03:00:57.073Z,15.4
2016-05-07T03:01:57.059Z,15.4
2016-05-07T03:02:57.047Z,15.42
2016-05-07T03:03:57.019Z,15.43
2016-05-07T03:04:56.990Z,15.4
2016-05-07T03:05:56.961Z,15.43
2016-05-07T03:06:56.948Z,15.28
2016-05-07T03:07:56.935Z,15.37
2016-05-07T03:08:56.907Z,15.27
2016-05-07T03:09:56.894Z,15.17
2016-05-07T03:10:56.866Z,15.18
2016-05-07T03:11:56.852Z,15.14
2016-05-07T03:12:56.683Z,15.11
2016-05-07T03:13:56.810Z,15.02
2016-05-07T03:14:56.783Z,15.09
2016-05-07T03:15:56.769Z,14.99
2016-05-07T03:16:56.600Z,14.92
2016-05-07T03:17:56.727Z,14.85
2016-05-07T03:18:56.559Z,14.89
2016-05-07T03:19:56.686Z,14.86
2016-05-07T03:20:56.674Z,14.86
2016-05-07T03:21:56.488Z,14.82
2016-05-07T03:22:56.632Z,14.69
2016-05-07T03:23:56.603Z,14.68
2016-05-07T03:24:56.591Z,14.68
2016-05-07T03:25:56.562Z,14.58
2016-05-07T03:26:56.549Z,14.58
2016-05-07T03:27:56.364Z,14.65
2016-05-07T03:28:56.507Z,14.54
2016-05-07T03:29:56.478Z,14.65
2016-05-07T03:30:56.467Z,14.55
2016-05-07T03:31:56.437Z,14.54
2016-05-07T03:32:56.425Z,14.48
2016-05-07T03:33:56.395Z,14.47
2016-05-07T03:34:56.368Z,14.5
2016-05-07T03:35:56.355Z,14.45
2016-05-07T03:36:56.342Z,14.45
2016-05-07T03:37:56.313Z,14.53
2016-05-07T03:38:56.284Z,14.44
2016-05-07T03:39:56.271Z,14.5
2016-05-07T03:40:56.259Z,14.54
2016-05-07T03:41:56.230Z,14.44
2016-05-07T03:42:56.216Z,14.63
2016-05-07T03:43:56.188Z,14.58
2016-05-07T03:44:56.175Z,14.55
2016-05-07T03:45:56.163Z,14.62
2016-05-07T03:46:55.978Z,14.6
2016-05-07T03:47:55.949Z,14.63
2016-05-07T03:48:56.093Z,14.6
2016-05-07T03:49:56.064Z,14.63
2016-05-07T03:50:56.051Z,14.66
2016-05-07T03:51:56.023Z,14.72
2016-05-07T03:52:56.009Z,14.77
2016-05-07T03:53:55.981Z,14.72
2016-05-07T03:54:55.968Z,14.82
2016-05-07T03:55:55.939Z,14.77
2016-05-07T03:56:55.787Z,14.84
2016-05-07T03:57:55.898Z,14.82
2016-05-07T03:58:55.885Z,14.88
2016-05-07T03:59:55.856Z,14.88
2016-05-07T04:00:55.843Z,14.92
2016-05-07T04:01:55.659Z,14.89
2016-05-07T04:02:55.802Z,14.88
2016-05-07T04:03:55.773Z,14.84
2016-05-07T04:04:55.761Z,14.88
2016-05-07T04:05:55.576Z,14.91
2016-05-07T04:06:55.719Z,14.96
2016-05-07T04:07:55.691Z,14.99
2016-05-07T04:08:55.662Z,14.94
2016-05-07T04:09:55.649Z,14.96
2016-05-07T04:10:55.636Z,14.94
2016-05-07T04:11:55.608Z,14.92
2016-05-07T04:12:55.594Z,14.94
2016-05-07T04:13:55.566Z,14.92
2016-05-07T04:14:55.553Z,14.86
2016-05-07T04:15:55.524Z,14.91
2016-05-07T04:16:55.511Z,14.92
2016-05-07T04:17:55.483Z,14.89
2016-05-07T04:18:55.471Z,14.89
2016-05-07T04:19:55.441Z,14.91
2016-05-07T04:20:55.429Z,14.89
2016-05-07T04:21:55.415Z,14.85
2016-05-07T04:22:55.387Z,14.89
2016-05-07T04:23:55.202Z,14.86
2016-05-07T04:24:55.346Z,14.86
2016-05-07T04:25:55.332Z,14.88
2016-05-07T04:26:55.663Z,14.85
2016-05-07T04:27:55.307Z,14.82
2016-05-07T04:28:55.262Z,14.81
2016-05-07T04:29:55.250Z,14.82
2016-05-07T04:30:55.221Z,14.66
2016-05-07T04:31:55.208Z,14.72
2016-05-07T04:32:55.195Z,14.72
2016-05-07T04:33:55.182Z,14.69
2016-05-07T04:34:55.138Z,14.73
2016-05-07T04:35:54.970Z,14.73
2016-05-07T04:36:55.097Z,14.7
2016-05-07T04:37:54.927Z,14.66
2016-05-07T04:38:55.056Z,14.72
2016-05-07T04:39:55.042Z,14.65
2016-05-07T04:40:55.013Z,14.68
2016-05-07T04:41:55.000Z,14.68
2016-05-07T04:42:54.973Z,14.65
2016-05-07T04:43:54.959Z,14.77
2016-05-07T04:44:54.930Z,14.69
2016-05-07T04:45:54.918Z,14.68
2016-05-07T04:46:54.749Z,14.78
2016-05-07T04:47:54.877Z,14.78
2016-05-07T04:48:54.847Z,14.68
2016-05-07T04:49:54.835Z,14.73
2016-05-07T04:50:54.807Z,14.72
2016-05-07T04:51:54.793Z,14.72
2016-05-07T04:52:54.765Z,14.88
2016-05-07T04:53:54.595Z,14.73
2016-05-07T04:54:54.582Z,14.86
2016-05-07T04:55:54.710Z,14.84
2016-05-07T04:56:54.682Z,14.92
2016-05-07T04:57:54.668Z,14.85
2016-05-07T04:58:54.656Z,14.85
2016-05-07T04:59:54.627Z,14.94
2016-05-07T05:00:54.615Z,14.92
2016-05-07T05:01:54.429Z,15.09
2016-05-07T05:02:54.573Z,15.07
2016-05-07T05:03:54.387Z,15.17
2016-05-07T05:04:54.532Z,15.21
2016-05-07T05:05:54.518Z,15.27
2016-05-07T05:06:54.489Z,15.33
2016-05-07T05:07:54.461Z,15.28
2016-05-07T05:08:54.448Z,15.4
2016-05-07T05:09:54.264Z,15.49
2016-05-07T05:10:54.407Z,15.47
2016-05-07T05:11:54.238Z,15.58
2016-05-07T05:12:54.866Z,15.59
2016-05-07T05:13:54.352Z,15.67
2016-05-07T05:14:54.324Z,15.72
2016-05-07T05:15:54.311Z,15.76
2016-05-07T05:16:54.283Z,15.76
2016-05-07T05:17:54.269Z,15.75
2016-05-07T05:18:54.100Z,15.86
2016-05-07T05:19:54.228Z,15.86
2016-05-07T05:20:54.215Z,15.94
2016-05-07T05:21:54.187Z,15.97
2016-05-07T05:22:54.174Z,16.01
2016-05-07T05:23:54.160Z,16.1
2016-05-07T05:24:54.132Z,16.15
2016-05-07T05:25:53.963Z,16.2
2016-05-07T05:26:54.090Z,16.29
2016-05-07T05:27:54.077Z,16.32
2016-05-07T05:28:54.065Z,16.42
2016-05-07T05:29:53.880Z,16.46
2016-05-07T05:30:54.023Z,16.49
2016-05-07T05:31:53.995Z,16.49
2016-05-07T05:32:53.826Z,16.51
2016-05-07T05:33:53.968Z,16.65
2016-05-07T05:34:53.940Z,16.71
2016-05-07T05:35:53.928Z,16.68
2016-05-07T05:36:53.914Z,16.81
2016-05-07T05:37:53.886Z,16.9
2016-05-07T05:38:53.857Z,16.97
2016-05-07T05:39:53.688Z,16.99
2016-05-07T05:40:53.832Z,16.99
2016-05-07T05:41:53.819Z,16.94
2016-05-07T05:42:53.930Z,17.06
2016-05-07T05:43:53.621Z,17.15
2016-05-07T05:44:53.764Z,17.23
2016-05-07T05:45:53.736Z,17.26
2016-05-07T05:46:53.566Z,17.3
2016-05-07T05:47:53.710Z,17.39
2016-05-07T05:48:53.681Z,17.41
2016-05-07T05:49:53.715Z,17.49
2016-05-07T05:50:53.639Z,17.52
2016-05-07T05:51:53.627Z,17.68
2016-05-07T05:52:53.630Z,17.71
2016-05-07T05:53:53.601Z,17.82
2016-05-07T05:54:53.432Z,17.83
2016-05-07T05:55:53.560Z,17.95
2016-05-07T05:56:53.562Z,17.95
2016-05-07T05:57:53.580Z,18.11
2016-05-07T05:58:53.505Z,18.25
2016-05-07T05:59:53.493Z,18.35
2016-05-07T06:00:53.479Z,18.34
2016-05-07T06:01:53.466Z,18.52
2016-05-07T06:02:53.453Z,18.56
2016-05-07T06:03:53.456Z,18.71
2016-05-07T06:04:53.256Z,18.71
2016-05-07T06:05:53.399Z,18.86
2016-05-07T06:06:53.386Z,18.9
2016-05-07T06:07:53.373Z,19.07
2016-05-07T06:08:53.360Z,19.14
2016-05-07T06:09:53.348Z,19.24
2016-05-07T06:10:53.178Z,19.29
2016-05-07T06:11:53.320Z,19.44
2016-05-07T06:12:53.605Z,19.49
2016-05-07T06:13:53.280Z,19.51
2016-05-07T06:14:53.267Z,19.73
2016-05-07T06:15:53.254Z,19.73
2016-05-07T06:16:53.241Z,19.85
2016-05-07T06:17:53.228Z,19.96
2016-05-07T06:18:53.215Z,20.09
2016-05-07T06:19:53.203Z,20.14
2016-05-07T06:20:53.189Z,20.24
2016-05-07T06:21:53.036Z,20.34
2016-05-07T06:22:53.179Z,20.5
2016-05-07T06:23:53.150Z,20.48
2016-05-07T06:24:53.138Z,20.72
2016-05-07T06:25:53.124Z,20.62
2016-05-07T06:26:52.971Z,20.77
2016-05-07T06:27:53.068Z,20.81
2016-05-07T06:28:53.101Z,20.82
2016-05-07T06:29:53.088Z,20.93
2016-05-07T06:30:53.075Z,20.99
2016-05-07T06:31:53.062Z,21.03
2016-05-07T06:32:53.050Z,21.06
2016-05-07T06:33:53.037Z,21.14
2016-05-07T06:34:53.023Z,21.24
2016-05-07T06:35:53.011Z,21.2
2016-05-07T06:36:52.998Z,21.36
2016-05-07T06:37:52.985Z,21.45
2016-05-07T06:38:52.972Z,21.5
2016-05-07T06:39:52.959Z,21.5
2016-05-07T06:40:52.946Z,21.6
2016-05-07T06:41:52.933Z,21.64
2016-05-07T06:42:52.936Z,21.7
2016-05-07T06:43:52.906Z,21.76
2016-05-07T06:44:52.894Z,21.88
2016-05-07T06:45:52.897Z,21.82
2016-05-07T06:46:52.884Z,21.83
2016-05-07T06:47:52.872Z,21.83
2016-05-07T06:48:52.858Z,22.04
2016-05-07T06:49:52.845Z,21.98
2016-05-07T06:50:52.833Z,22.13
2016-05-07T06:51:52.663Z,22.17
2016-05-07T06:52:52.806Z,22.23
2016-05-07T06:53:52.794Z,22.3
2016-05-07T06:54:52.780Z,22.35
2016-05-07T06:55:52.799Z,22.41
2016-05-07T06:56:52.754Z,22.48
2016-05-07T06:57:52.602Z,22.54
2016-05-07T06:58:52.744Z,22.59
2016-05-07T06:59:52.731Z,22.7
2016-05-07T07:00:52.718Z,22.84
2016-05-07T07:01:52.705Z,22.93
2016-05-07T07:02:52.693Z,22.94
2016-05-07T07:03:52.696Z,23.09
2016-05-07T07:04:52.713Z,23.12
2016-05-07T07:05:52.670Z,23.13
2016-05-07T07:06:52.656Z,23.23
2016-05-07T07:07:52.644Z,23.28
2016-05-07T07:08:52.646Z,23.37
2016-05-07T07:09:52.633Z,23.51
2016-05-07T07:10:52.621Z,23.58
2016-05-07T07:11:52.607Z,23.61
2016-05-07T07:12:52.610Z,23.63
2016-05-07T07:13:52.597Z,23.78
2016-05-07T07:14:52.584Z,23.81
2016-05-07T07:15:52.571Z,23.88
2016-05-07T07:16:52.575Z,23.98
2016-05-07T07:17:52.562Z,23.96
2016-05-07T07:18:52.392Z,24.1
2016-05-07T07:19:52.550Z,24.16
2016-05-07T07:20:52.538Z,24.21
2016-05-07T07:21:52.525Z,24.32
2016-05-07T07:22:52.512Z,24.48
2016-05-07T07:23:52.500Z,24.51
2016-05-07T07:24:52.502Z,24.63
2016-05-07T07:25:52.489Z,24.7
2016-05-07T07:26:52.335Z,24.78
2016-05-07T07:27:52.479Z,24.88
2016-05-07T07:28:52.496Z,25.04
2016-05-07T07:29:52.469Z,25.06
2016-05-07T07:30:52.300Z,25.17
2016-05-07T07:31:52.458Z,25.21
2016-05-07T07:32:52.445Z,25.31
2016-05-07T07:33:52.291Z,25.38
2016-05-07T07:34:52.435Z,25.47
2016-05-07T07:35:52.266Z,25.69
2016-05-07T07:36:52.425Z,25.68
2016-05-07T07:37:52.412Z,25.7
2016-05-07T07:38:52.415Z,25.81
2016-05-07T07:39:52.401Z,25.83
2016-05-07T07:40:52.248Z,25.81
2016-05-07T07:41:52.392Z,25.85
2016-05-07T07:42:52.754Z,25.95
2016-05-07T07:43:52.381Z,26.03
2016-05-07T07:44:52.368Z,26.03
2016-05-07T07:45:52.355Z,26.33
2016-05-07T07:46:52.358Z,26.38
2016-05-07T07:47:52.345Z,26.48
2016-05-07T07:48:52.348Z,26.53
2016-05-07T07:49:52.334Z,26.73
2016-05-07T07:50:52.337Z,26.66
2016-05-07T07:51:52.324Z,26.78
2016-05-07T07:52:52.328Z,26.92
2016-05-07T07:53:52.158Z,27.05
2016-05-07T07:54:52.317Z,27.12
2016-05-07T07:55:52.305Z,27.25
2016-05-07T07:56:52.307Z,27.29
2016-05-07T07:57:52.466Z,27.3
2016-05-07T07:58:52.280Z,27.36
2016-05-07T07:59:52.283Z,27.47
2016-05-07T08:00:52.286Z,27.36
2016-05-07T08:01:52.274Z,27.39
2016-05-07T08:02:52.276Z,27.39
2016-05-07T08:03:52.279Z,27.42
2016-05-07T08:04:52.265Z,27.58
2016-05-07T08:05:52.269Z,27.65
2016-05-07T08:06:52.255Z,27.67
2016-05-07T08:07:52.258Z,27.8
2016-05-07T08:08:52.260Z,27.87
2016-05-07T08:09:52.248Z,27.86
2016-05-07T08:10:52.095Z,27.95
2016-05-07T08:11:52.237Z,28.01
2016-05-07T08:12:52.600Z,28.07
2016-05-07T08:13:52.228Z,28.17
2016-05-07T08:14:52.230Z,28.17
2016-05-07T08:15:52.218Z,28.15
2016-05-07T08:16:52.220Z,28.29
2016-05-07T08:17:52.206Z,28.45
2016-05-07T08:18:52.209Z,28.44
2016-05-07T08:19:52.212Z,28.47
2016-05-07T08:20:52.200Z,28.6
2016-05-07T08:21:52.203Z,28.7
2016-05-07T08:22:52.205Z,28.81
2016-05-07T08:23:52.191Z,28.97
2016-05-07T08:24:52.194Z,29.05
2016-05-07T08:25:52.198Z,29.04
2016-05-07T08:26:52.184Z,29.05
2016-05-07T08:27:52.202Z,29.02
2016-05-07T08:28:52.194Z,29.08
2016-05-07T08:29:52.239Z,29.16
2016-05-07T08:30:52.271Z,29.19
2016-05-07T08:31:52.316Z,29.2
2016-05-07T08:32:52.346Z,29.39
2016-05-07T08:33:52.388Z,29.44
2016-05-07T08:34:52.406Z,29.57
2016-05-07T08:35:52.878Z,29.6
2016-05-07T08:36:52.428Z,29.72
2016-05-07T08:37:52.445Z,29.75
2016-05-07T08:38:52.462Z,29.78
2016-05-07T08:39:52.471Z,29.84
2016-05-07T08:40:52.479Z,29.87
2016-05-07T08:41:52.472Z,29.93
2016-05-07T08:42:52.652Z,29.86
2016-05-07T08:43:52.472Z,29.95
2016-05-07T08:44:52.477Z,30.18
2016-05-07T08:45:52.326Z,30.16
2016-05-07T08:46:52.486Z,30.16
2016-05-07T08:47:52.475Z,30.09
2016-05-07T08:48:52.481Z,30.18
2016-05-07T08:49:52.484Z,30.19
2016-05-07T08:50:52.487Z,30.25
2016-05-07T08:51:52.319Z,30.25
2016-05-07T08:52:52.478Z,30.32
2016-05-07T08:53:52.481Z,30.4
2016-05-07T08:54:52.484Z,30.51
2016-05-07T08:55:52.472Z,30.51
2016-05-07T08:56:52.491Z,30.57
2016-05-07T08:57:52.478Z,30.62
2016-05-07T08:58:52.481Z,30.66
2016-05-07T08:59:52.327Z,30.78
2016-05-07T09:00:52.315Z,30.66
2016-05-07T09:01:52.474Z,30.81
2016-05-07T09:02:52.476Z,30.8
2016-05-07T09:03:52.495Z,30.73
2016-05-07T09:04:52.482Z,30.81
2016-05-07T09:05:52.485Z,30.91
2016-05-07T09:06:52.471Z,31
2016-05-07T09:07:52.474Z,31.07
2016-05-07T09:08:52.477Z,31.1
2016-05-07T09:09:52.465Z,31.09
2016-05-07T09:10:52.482Z,31.02
2016-05-07T09:11:52.470Z,30.97
2016-05-07T09:12:52.315Z,31.05
2016-05-07T09:13:52.476Z,30.96
2016-05-07T09:14:52.478Z,31.03
2016-05-07T09:15:52.465Z,30.9
2016-05-07T09:16:52.467Z,30.99
2016-05-07T09:17:52.470Z,31.02
2016-05-07T09:18:52.317Z,31.07
2016-05-07T09:19:52.476Z,31.22
2016-05-07T09:20:52.462Z,31.22
2016-05-07T09:21:52.480Z,31.27
2016-05-07T09:22:52.468Z,31.25
2016-05-07T09:23:52.314Z,31.15
2016-05-07T09:24:52.473Z,31.18
2016-05-07T09:25:52.476Z,31.22
2016-05-07T09:26:52.322Z,31.36
2016-05-07T09:27:52.481Z,31.34
2016-05-07T09:28:52.484Z,31.42
2016-05-07T09:29:52.471Z,31.49
2016-05-07T09:30:52.552Z,31.52
2016-05-07T09:31:52.476Z,31.51
2016-05-07T09:32:52.479Z,31.4
2016-05-07T09:33:52.466Z,31.34
2016-05-07T09:34:52.469Z,31.42
2016-05-07T09:35:52.472Z,31.52
2016-05-07T09:36:52.474Z,31.31
2016-05-07T09:37:52.493Z,31.24
2016-05-07T09:38:52.479Z,31.24
2016-05-07T09:39:52.482Z,31.21
2016-05-07T09:40:52.469Z,31.39
2016-05-07T09:41:52.472Z,31.58
2016-05-07T09:42:52.881Z,31.69
2016-05-07T09:43:52.477Z,31.62
2016-05-07T09:44:52.480Z,31.65
2016-05-07T09:45:52.468Z,31.64
2016-05-07T09:46:52.470Z,31.55
2016-05-07T09:47:52.473Z,31.7
2016-05-07T09:48:52.475Z,31.65
2016-05-07T09:49:52.478Z,31.7
2016-05-07T09:50:52.481Z,31.64
2016-05-07T09:51:52.484Z,31.56
2016-05-07T09:52:52.470Z,31.62
2016-05-07T09:53:52.473Z,31.71
2016-05-07T09:54:52.475Z,31.97
2016-05-07T09:55:52.479Z,32.03
2016-05-07T09:56:52.481Z,32.12
2016-05-07T09:57:53.594Z,32.26
2016-05-07T09:58:52.471Z,32.23
2016-05-07T09:59:52.474Z,32.11
2016-05-07T10:00:52.477Z,32.09
2016-05-07T10:01:52.480Z,32.14
2016-05-07T10:02:52.325Z,32.14
2016-05-07T10:03:52.500Z,32.09
2016-05-07T10:04:52.488Z,32.14
2016-05-07T10:05:52.490Z,32.11
2016-05-07T10:06:52.493Z,32.04
2016-05-07T10:07:52.496Z,32.08
2016-05-07T10:08:52.482Z,32.08
2016-05-07T10:09:52.501Z,32.07
2016-05-07T10:10:52.488Z,32.09
2016-05-07T10:11:52.490Z,32.14
2016-05-07T10:12:53.055Z,32
2016-05-07T10:13:52.340Z,31.96
2016-05-07T10:14:52.498Z,32.01
2016-05-07T10:15:52.345Z,31.93
2016-05-07T10:16:52.504Z,31.96
2016-05-07T10:17:52.507Z,31.99
2016-05-07T10:18:52.509Z,32.04
2016-05-07T10:19:52.512Z,32.03
2016-05-07T10:20:52.359Z,32.14
2016-05-07T10:21:52.517Z,32.08
2016-05-07T10:22:52.503Z,32.14
2016-05-07T10:23:52.506Z,32.11
2016-05-07T10:24:52.510Z,32.12
2016-05-07T10:25:52.512Z,32.03
2016-05-07T10:26:52.514Z,31.9
2016-05-07T10:27:52.357Z,31.87
2016-05-07T10:28:52.515Z,31.85
2016-05-07T10:29:52.517Z,31.85
2016-05-07T10:30:52.521Z,31.92
2016-05-07T10:31:52.523Z,31.89
2016-05-07T10:32:52.511Z,31.93
2016-05-07T10:33:52.528Z,31.87
2016-05-07T10:34:52.517Z,31.9
2016-05-07T10:35:52.519Z,31.93
2016-05-07T10:36:52.521Z,31.96
2016-05-07T10:37:52.525Z,32.04
2016-05-07T10:38:52.371Z,31.96
2016-05-07T10:39:52.529Z,31.92
2016-05-07T10:40:52.532Z,31.97
2016-05-07T10:41:52.519Z,32.04
2016-05-07T10:42:52.522Z,32.22
2016-05-07T10:43:52.524Z,32.22
2016-05-07T10:44:52.527Z,32.29
2016-05-07T10:45:52.530Z,32.38
2016-05-07T10:46:52.376Z,32.41
2016-05-07T10:47:52.520Z,32.38
2016-05-07T10:48:52.366Z,32.4
2016-05-07T10:49:52.526Z,32.45
2016-05-07T10:50:52.528Z,32.45
2016-05-07T10:51:52.531Z,32.49
2016-05-07T10:52:52.534Z,32.53
2016-05-07T10:53:52.536Z,32.52
2016-05-07T10:54:52.539Z,32.43
2016-05-07T10:55:52.384Z,32.46
2016-05-07T10:56:52.529Z,32.45
2016-05-07T10:57:52.531Z,32.43
2016-05-07T10:58:52.377Z,32.46
2016-05-07T10:59:52.381Z,32.49
2016-05-07T11:00:52.539Z,32.58
2016-05-07T11:01:52.541Z,32.71
2016-05-07T11:02:52.544Z,32.77
2016-05-07T11:03:52.548Z,32.71
2016-05-07T11:04:52.534Z,32.55
2016-05-07T11:05:52.536Z,32.56
2016-05-07T11:06:52.556Z,32.53
2016-05-07T11:07:52.542Z,32.51
2016-05-07T11:08:52.388Z,32.53
2016-05-07T11:09:52.532Z,32.46
2016-05-07T11:10:52.550Z,32.29
2016-05-07T11:11:52.538Z,32.11
2016-05-07T11:12:52.540Z,32.07
2016-05-07T11:13:52.543Z,31.87
2016-05-07T11:14:52.546Z,31.8
2016-05-07T11:15:52.532Z,31.62
2016-05-07T11:16:52.535Z,31.21
2016-05-07T11:17:52.397Z,31.15
2016-05-07T11:18:52.385Z,31
2016-05-07T11:19:52.527Z,30.81
2016-05-07T11:20:52.530Z,30.75
2016-05-07T11:21:52.532Z,30.66
2016-05-07T11:22:52.520Z,30.66
2016-05-07T11:23:52.523Z,30.61
2016-05-07T11:24:52.526Z,30.48
2016-05-07T11:25:52.512Z,30.39
2016-05-07T11:26:52.515Z,30.32
2016-05-07T11:27:52.518Z,30.3
2016-05-07T11:28:52.505Z,30.15
2016-05-07T11:29:52.508Z,30.12
2016-05-07T11:30:52.492Z,30.03
2016-05-07T11:31:52.495Z,29.91
2016-05-07T11:32:52.497Z,29.79
2016-05-07T11:33:52.485Z,29.66
2016-05-07T11:34:52.487Z,29.68
2016-05-07T11:35:52.475Z,29.38
2016-05-07T11:36:52.477Z,29.41
2016-05-07T11:37:52.479Z,29.27
2016-05-07T11:38:52.467Z,29.32
2016-05-07T11:39:52.469Z,29.31
2016-05-07T11:40:52.456Z,29.31
2016-05-07T11:41:52.443Z,29.19
2016-05-07T11:42:52.996Z,29.23
2016-05-07T11:43:52.433Z,29.27
2016-05-07T11:44:52.435Z,29.22
2016-05-07T11:45:52.424Z,29.32
2016-05-07T11:46:52.426Z,29.31
2016-05-07T11:47:52.429Z,29.29
2016-05-07T11:48:52.415Z,29.27
2016-05-07T11:49:52.402Z,29.24
2016-05-07T11:50:52.405Z,29.32
2016-05-07T11:51:52.408Z,29.35
2016-05-07T11:52:52.395Z,29.31
2016-05-07T11:53:52.382Z,29.26
2016-05-07T11:54:52.385Z,29.27
2016-05-07T11:55:52.371Z,29.31
2016-05-07T11:56:52.390Z,29.32
2016-05-07T11:57:52.220Z,29.26
2016-05-07T11:58:52.365Z,29.35
2016-05-07T11:59:52.351Z,29.32
2016-05-07T12:00:52.354Z,29.34
2016-05-07T12:01:52.184Z,29.42
2016-05-07T12:02:52.359Z,29.53
2016-05-07T12:03:52.331Z,29.49
2016-05-07T12:04:52.177Z,29.5
2016-05-07T12:05:52.336Z,29.57
2016-05-07T12:06:52.323Z,29.63
2016-05-07T12:07:52.311Z,29.54
2016-05-07T12:08:52.156Z,29.66
2016-05-07T12:09:52.316Z,29.63
2016-05-07T12:10:52.303Z,29.69
2016-05-07T12:11:52.289Z,29.82
2016-05-07T12:12:52.152Z,29.82
2016-05-07T12:13:52.280Z,29.84
2016-05-07T12:14:52.126Z,29.86
2016-05-07T12:15:52.285Z,29.93
2016-05-07T12:16:52.272Z,29.88
2016-05-07T12:17:52.118Z,29.76
2016-05-07T12:18:52.262Z,29.73
2016-05-07T12:19:52.249Z,29.69
2016-05-07T12:20:52.252Z,29.57
2016-05-07T12:21:52.254Z,29.63
2016-05-07T12:22:52.241Z,29.65
2016-05-07T12:23:52.244Z,29.72
2016-05-07T12:24:52.231Z,29.75
2016-05-07T12:25:52.218Z,29.78
2016-05-07T12:26:52.220Z,29.79
2016-05-07T12:27:52.552Z,29.87
2016-05-07T12:28:52.210Z,29.87
2016-05-07T12:29:52.213Z,29.86
2016-05-07T12:30:52.200Z,29.9
2016-05-07T12:31:52.203Z,29.88
2016-05-07T12:32:52.190Z,29.94
2016-05-07T12:33:52.192Z,29.98
2016-05-07T12:34:52.181Z,29.97
2016-05-07T12:35:52.182Z,30
2016-05-07T12:36:52.170Z,30.23
2016-05-07T12:37:52.172Z,30.24
2016-05-07T12:38:52.175Z,30.43
2016-05-07T12:39:52.161Z,30.43
2016-05-07T12:40:52.165Z,30.55
2016-05-07T12:41:52.152Z,30.62
2016-05-07T12:42:52.764Z,30.66
2016-05-07T12:43:52.157Z,30.63
2016-05-07T12:44:51.988Z,30.75
2016-05-07T12:45:52.147Z,30.7
2016-05-07T12:46:52.134Z,30.78
2016-05-07T12:47:51.980Z,30.78
2016-05-07T12:48:52.139Z,30.69
2016-05-07T12:49:52.142Z,30.63
2016-05-07T12:50:52.129Z,30.77
2016-05-07T12:51:51.976Z,30.75
2016-05-07T12:52:52.118Z,30.83
2016-05-07T12:53:52.121Z,30.77